TFOWE BIAR-BIVM
Flight info
| Callsign | TFOWE |
|---|---|
| Flight time | N/A |
| Altitude | 8500 |
| Route | AKI DCT VM |
| Aircraft | C414/L-SBDFGRY/S |
Departure
| Time | 2026-04-27 09:40 |
|---|---|
| Airport | Akureyri International Airport (BIAR) |
Arrival
| Time | N/A |
|---|---|
| Airport | Vestmannaeyjar Airport (BIVM) |
| Time | Latitude | Longitude | Altitude | Speed | Heading |
|---|---|---|---|---|---|
| 2026-04-27 09:21 | 65.65483 | -18.07486 | 15 ft | 0 kts | 12° |
| 2026-04-27 09:36 | 65.65487 | -18.07484 | 15 ft | 5 kts | 12° |
| 2026-04-27 09:37 | 65.65499 | -18.07383 | 15 ft | 13 kts | 91° |
| 2026-04-27 09:37 | 65.65523 | -18.07161 | 15 ft | 15 kts | 3° |
| 2026-04-27 09:37 | 65.65668 | -18.07184 | 15 ft | 29 kts | 359° |
| 2026-04-27 09:37 | 65.65919 | -18.07200 | 15 ft | 38 kts | 357° |
| 2026-04-27 09:38 | 65.66176 | -18.07227 | 15 ft | 35 kts | 1° |
| 2026-04-27 09:38 | 65.66259 | -18.07316 | 15 ft | 8 kts | 176° |
| 2026-04-27 09:38 | 65.66244 | -18.07314 | 15 ft | 0 kts | 175° |
| 2026-04-27 09:39 | 65.66243 | -18.07313 | 15 ft | 4 kts | 175° |
| 2026-04-27 09:39 | 65.66023 | -18.07271 | 15 ft | 57 kts | 175° |
| 2026-04-27 09:39 | 65.65562 | -18.07133 | 137 ft | 74 kts | 168° |
| 2026-04-27 09:40 | 65.65078 | -18.06669 | 346 ft | 84 kts | 163° |
| 2026-04-27 09:40 | 65.64462 | -18.06262 | 440 ft | 96 kts | 173° |
| 2026-04-27 09:40 | 65.63805 | -18.06073 | 725 ft | 98 kts | 174° |
| 2026-04-27 09:40 | 65.63109 | -18.05988 | 1076 ft | 100 kts | 176° |
| 2026-04-27 09:41 | 65.62414 | -18.05771 | 1419 ft | 104 kts | 169° |
| 2026-04-27 09:41 | 65.61647 | -18.05694 | 1703 ft | 113 kts | 175° |
| 2026-04-27 09:41 | 65.60851 | -18.05491 | 2120 ft | 112 kts | 165° |
| 2026-04-27 09:41 | 65.60210 | -18.04717 | 2584 ft | 113 kts | 155° |
| 2026-04-27 09:42 | 65.59346 | -18.03916 | 2529 ft | 138 kts | 159° |
| 2026-04-27 09:42 | 65.58751 | -18.03146 | 2312 ft | 157 kts | 151° |
| 2026-04-27 09:42 | 65.58666 | -18.03022 | 2243 ft | 161 kts | 152° |
| 2026-04-27 09:43 | 65.57532 | -18.02046 | 1531 ft | 186 kts | 173° |
| 2026-04-27 09:43 | 65.56367 | -18.02000 | 1464 ft | 125 kts | 184° |
| 2026-04-27 09:43 | 65.55547 | -18.03122 | 1273 ft | 157 kts | 224° |
| 2026-04-27 09:43 | 65.54884 | -18.05291 | 1265 ft | 160 kts | 228° |
| 2026-04-27 09:44 | 65.54137 | -18.06887 | 1630 ft | 132 kts | 204° |
| 2026-04-27 09:44 | 65.53458 | -18.08302 | 1966 ft | 127 kts | 220° |
| 2026-04-27 09:44 | 65.52869 | -18.09796 | 2266 ft | 123 kts | 219° |
| 2026-04-27 09:44 | 65.52282 | -18.11253 | 2597 ft | 119 kts | 218° |
| 2026-04-27 09:45 | 65.51707 | -18.12641 | 2985 ft | 113 kts | 219° |
| 2026-04-27 09:45 | 65.51258 | -18.14173 | 3333 ft | 115 kts | 241° |
| 2026-04-27 09:45 | 65.50985 | -18.15966 | 3662 ft | 112 kts | 239° |
| 2026-04-27 09:45 | 65.50701 | -18.17714 | 3974 ft | 111 kts | 239° |
| 2026-04-27 09:46 | 65.50420 | -18.19448 | 4288 ft | 110 kts | 238° |
| 2026-04-27 09:46 | 65.50148 | -18.21131 | 4626 ft | 108 kts | 237° |
| 2026-04-27 09:46 | 65.49877 | -18.22801 | 4970 ft | 106 kts | 236° |
| 2026-04-27 09:46 | 65.49607 | -18.24462 | 5298 ft | 107 kts | 237° |
| 2026-04-27 09:47 | 65.49338 | -18.26140 | 5750 ft | 108 kts | 237° |
| 2026-04-27 09:47 | 65.49017 | -18.27739 | 5920 ft | 103 kts | 226° |
| 2026-04-27 09:47 | 65.48549 | -18.28968 | 5997 ft | 97 kts | 218° |
| 2026-04-27 09:47 | 65.47958 | -18.29781 | 6236 ft | 99 kts | 206° |
| 2026-04-27 09:48 | 65.47334 | -18.30571 | 6750 ft | 103 kts | 206° |
| 2026-04-27 09:48 | 65.46678 | -18.31322 | 7172 ft | 105 kts | 207° |
| 2026-04-27 09:48 | 65.45999 | -18.32065 | 7547 ft | 108 kts | 205° |
| 2026-04-27 09:48 | 65.45311 | -18.32798 | 7933 ft | 108 kts | 205° |
| 2026-04-27 09:49 | 65.44628 | -18.33517 | 8347 ft | 109 kts | 205° |
| 2026-04-27 09:49 | 65.43935 | -18.34242 | 8772 ft | 109 kts | 205° |
| 2026-04-27 09:49 | 65.43233 | -18.34976 | 9012 ft | 116 kts | 204° |
| 2026-04-27 09:49 | 65.42459 | -18.35782 | 8976 ft | 124 kts | 205° |
| 2026-04-27 09:50 | 65.41645 | -18.36634 | 8969 ft | 132 kts | 205° |
| 2026-04-27 09:50 | 65.40775 | -18.37537 | 8926 ft | 144 kts | 205° |
| 2026-04-27 09:50 | 65.39820 | -18.38528 | 8758 ft | 155 kts | 205° |
| 2026-04-27 09:50 | 65.38808 | -18.39578 | 8596 ft | 161 kts | 204° |
| 2026-04-27 09:51 | 65.37781 | -18.40643 | 8521 ft | 158 kts | 204° |
| 2026-04-27 09:51 | 65.36780 | -18.41678 | 8526 ft | 156 kts | 205° |
| 2026-04-27 09:51 | 65.35792 | -18.42697 | 8517 ft | 153 kts | 204° |
| 2026-04-27 09:51 | 65.34823 | -18.43702 | 8523 ft | 151 kts | 205° |
| 2026-04-27 09:52 | 65.33851 | -18.44707 | 8520 ft | 152 kts | 205° |
| 2026-04-27 09:52 | 65.32876 | -18.45714 | 8511 ft | 153 kts | 205° |
| 2026-04-27 09:52 | 65.31904 | -18.46716 | 8510 ft | 152 kts | 205° |
| 2026-04-27 09:52 | 65.30936 | -18.47715 | 8512 ft | 152 kts | 205° |
| 2026-04-27 09:53 | 65.29959 | -18.48720 | 8514 ft | 154 kts | 205° |
| 2026-04-27 09:53 | 65.28972 | -18.49738 | 8522 ft | 155 kts | 205° |
| 2026-04-27 09:53 | 65.27981 | -18.50757 | 8525 ft | 155 kts | 205° |
| 2026-04-27 09:53 | 65.26982 | -18.51782 | 8520 ft | 157 kts | 205° |
| 2026-04-27 09:54 | 65.25977 | -18.52814 | 8520 ft | 157 kts | 205° |
| 2026-04-27 09:54 | 65.24983 | -18.53834 | 8519 ft | 157 kts | 205° |
| 2026-04-27 09:54 | 65.23977 | -18.54865 | 8519 ft | 157 kts | 204° |
| 2026-04-27 09:54 | 65.22972 | -18.55895 | 8528 ft | 157 kts | 204° |
| 2026-04-27 09:55 | 65.21963 | -18.56927 | 8527 ft | 157 kts | 205° |
| 2026-04-27 09:55 | 65.20951 | -18.57961 | 8511 ft | 159 kts | 204° |
| 2026-04-27 09:55 | 65.18929 | -18.60028 | 8510 ft | 153 kts | 204° |
| 2026-04-27 09:56 | 65.17953 | -18.61023 | 8519 ft | 153 kts | 204° |
| 2026-04-27 09:56 | 65.16979 | -18.62014 | 8518 ft | 152 kts | 204° |
| 2026-04-27 09:56 | 65.16024 | -18.62988 | 8517 ft | 150 kts | 205° |
| 2026-04-27 09:56 | 65.15098 | -18.63927 | 8504 ft | 141 kts | 204° |
| 2026-04-27 09:57 | 65.14194 | -18.64848 | 8503 ft | 142 kts | 205° |
| 2026-04-27 09:57 | 65.13295 | -18.65762 | 8509 ft | 143 kts | 205° |
| 2026-04-27 09:57 | 65.12376 | -18.66695 | 8505 ft | 144 kts | 204° |
| 2026-04-27 09:57 | 65.11455 | -18.67630 | 8511 ft | 144 kts | 204° |
| 2026-04-27 09:58 | 65.10523 | -18.68575 | 8513 ft | 146 kts | 204° |
| 2026-04-27 09:58 | 65.09587 | -18.69523 | 8513 ft | 147 kts | 204° |
| 2026-04-27 09:58 | 65.08647 | -18.70474 | 8514 ft | 147 kts | 204° |
| 2026-04-27 09:58 | 65.07713 | -18.71419 | 8519 ft | 146 kts | 204° |
| 2026-04-27 09:59 | 65.06782 | -18.72359 | 8517 ft | 145 kts | 204° |
| 2026-04-27 09:59 | 65.05860 | -18.73290 | 8521 ft | 144 kts | 204° |
| 2026-04-27 09:59 | 65.04939 | -18.74220 | 8516 ft | 144 kts | 204° |
| 2026-04-27 09:59 | 65.04019 | -18.75146 | 8521 ft | 143 kts | 204° |
| 2026-04-27 10:00 | 65.03096 | -18.76079 | 8516 ft | 145 kts | 204° |
| 2026-04-27 10:00 | 65.02166 | -18.77014 | 8519 ft | 145 kts | 204° |
| 2026-04-27 10:00 | 65.01253 | -18.77932 | 8514 ft | 144 kts | 204° |
| 2026-04-27 10:00 | 65.00330 | -18.78859 | 8518 ft | 144 kts | 204° |
| 2026-04-27 10:01 | 64.99401 | -18.79792 | 8517 ft | 143 kts | 204° |
| 2026-04-27 10:01 | 64.98491 | -18.80707 | 8516 ft | 142 kts | 204° |
| 2026-04-27 10:01 | 64.97587 | -18.81613 | 8519 ft | 141 kts | 204° |
| 2026-04-27 10:01 | 64.96684 | -18.82519 | 8513 ft | 140 kts | 204° |
| 2026-04-27 10:02 | 64.95810 | -18.83394 | 8509 ft | 136 kts | 204° |
| 2026-04-27 10:02 | 64.94940 | -18.84263 | 8510 ft | 136 kts | 204° |
| 2026-04-27 10:02 | 64.94070 | -18.85135 | 8510 ft | 136 kts | 204° |
| 2026-04-27 10:02 | 64.93201 | -18.86003 | 8511 ft | 136 kts | 204° |
| 2026-04-27 10:03 | 64.92329 | -18.86873 | 8513 ft | 136 kts | 204° |
| 2026-04-27 10:03 | 64.91457 | -18.87744 | 8517 ft | 136 kts | 204° |
| 2026-04-27 10:03 | 64.90584 | -18.88615 | 8517 ft | 136 kts | 203° |
| 2026-04-27 10:03 | 64.89711 | -18.89485 | 8519 ft | 137 kts | 203° |
| 2026-04-27 10:04 | 64.88836 | -18.90357 | 8522 ft | 137 kts | 203° |
| 2026-04-27 10:04 | 64.87961 | -18.91228 | 8523 ft | 136 kts | 203° |
| 2026-04-27 10:04 | 64.87095 | -18.92088 | 8519 ft | 134 kts | 203° |
| 2026-04-27 10:04 | 64.86234 | -18.92943 | 8515 ft | 134 kts | 203° |
| 2026-04-27 10:05 | 64.85382 | -18.93790 | 8514 ft | 131 kts | 204° |
| 2026-04-27 10:05 | 64.84548 | -18.94619 | 8518 ft | 130 kts | 203° |
| 2026-04-27 10:05 | 64.83702 | -18.95458 | 8524 ft | 134 kts | 203° |
| 2026-04-27 10:05 | 64.82838 | -18.96312 | 8527 ft | 135 kts | 203° |
| 2026-04-27 10:06 | 64.81966 | -18.97175 | 8526 ft | 136 kts | 203° |
| 2026-04-27 10:06 | 64.81090 | -18.98043 | 8526 ft | 137 kts | 203° |
| 2026-04-27 10:06 | 64.80222 | -18.98902 | 8525 ft | 137 kts | 202° |
| 2026-04-27 10:06 | 64.79340 | -18.99774 | 8531 ft | 138 kts | 202° |
| 2026-04-27 10:07 | 64.78445 | -19.00656 | 8523 ft | 141 kts | 202° |
| 2026-04-27 10:07 | 64.77540 | -19.01550 | 8521 ft | 141 kts | 202° |
| 2026-04-27 10:07 | 64.76632 | -19.02446 | 8530 ft | 142 kts | 202° |
| 2026-04-27 10:07 | 64.75719 | -19.03346 | 8527 ft | 143 kts | 203° |
| 2026-04-27 10:08 | 64.74800 | -19.04250 | 8526 ft | 143 kts | 203° |
| 2026-04-27 10:08 | 64.73882 | -19.05154 | 8524 ft | 143 kts | 203° |
| 2026-04-27 10:08 | 64.72963 | -19.06057 | 8527 ft | 143 kts | 203° |
| 2026-04-27 10:08 | 64.72046 | -19.06958 | 8521 ft | 143 kts | 202° |
| 2026-04-27 10:09 | 64.71124 | -19.07864 | 8519 ft | 144 kts | 202° |
| 2026-04-27 10:09 | 64.70194 | -19.08776 | 8515 ft | 144 kts | 202° |
| 2026-04-27 10:09 | 64.69276 | -19.09675 | 8522 ft | 143 kts | 202° |
| 2026-04-27 10:09 | 64.68368 | -19.10564 | 8521 ft | 144 kts | 202° |
| 2026-04-27 10:10 | 64.67447 | -19.11466 | 8520 ft | 143 kts | 202° |
| 2026-04-27 10:10 | 64.66530 | -19.12363 | 8520 ft | 142 kts | 203° |
| 2026-04-27 10:10 | 64.65611 | -19.13262 | 8523 ft | 142 kts | 202° |
| 2026-04-27 10:10 | 64.64712 | -19.14140 | 8522 ft | 142 kts | 202° |
| 2026-04-27 10:11 | 64.64079 | -19.14758 | 8525 ft | 140 kts | 202° |
| 2026-04-27 10:11 | 64.63195 | -19.15623 | 8518 ft | 139 kts | 202° |
| 2026-04-27 10:11 | 64.62312 | -19.16478 | 8531 ft | 138 kts | 202° |
| 2026-04-27 10:11 | 64.61422 | -19.17349 | 8527 ft | 138 kts | 202° |
| 2026-04-27 10:12 | 64.60531 | -19.18216 | 8536 ft | 139 kts | 202° |
| 2026-04-27 10:12 | 64.59628 | -19.19093 | 8529 ft | 141 kts | 202° |
| 2026-04-27 10:12 | 64.58732 | -19.19964 | 8532 ft | 139 kts | 202° |
| 2026-04-27 10:12 | 64.57845 | -19.20824 | 8529 ft | 138 kts | 202° |
| 2026-04-27 10:13 | 64.56959 | -19.21683 | 8518 ft | 136 kts | 202° |
| 2026-04-27 10:13 | 64.56078 | -19.22539 | 8533 ft | 139 kts | 202° |
| 2026-04-27 10:13 | 64.55174 | -19.23418 | 8531 ft | 142 kts | 202° |
| 2026-04-27 10:13 | 64.54257 | -19.24306 | 8532 ft | 143 kts | 202° |
| 2026-04-27 10:14 | 64.53338 | -19.25196 | 8535 ft | 144 kts | 203° |
| 2026-04-27 10:14 | 64.52410 | -19.26093 | 8534 ft | 144 kts | 203° |
| 2026-04-27 10:14 | 64.51481 | -19.26990 | 8529 ft | 144 kts | 203° |
| 2026-04-27 10:14 | 64.50558 | -19.27880 | 8529 ft | 143 kts | 203° |
| 2026-04-27 10:15 | 64.49639 | -19.28768 | 8524 ft | 143 kts | 203° |
| 2026-04-27 10:15 | 64.48735 | -19.29641 | 8522 ft | 142 kts | 203° |
| 2026-04-27 10:15 | 64.47823 | -19.30518 | 8524 ft | 141 kts | 203° |
| 2026-04-27 10:15 | 64.46918 | -19.31394 | 8525 ft | 142 kts | 203° |
| 2026-04-27 10:16 | 64.46012 | -19.32338 | 8524 ft | 144 kts | 204° |
| 2026-04-27 10:16 | 64.45720 | -19.32635 | 8521 ft | 144 kts | 204° |
| 2026-04-27 10:16 | 64.45690 | -19.32664 | 8520 ft | 144 kts | 204° |
| 2026-04-27 10:16 | 64.44765 | -19.33575 | 8518 ft | 144 kts | 203° |
| 2026-04-27 10:17 | 64.43841 | -19.34470 | 8514 ft | 143 kts | 203° |
| 2026-04-27 10:17 | 64.42923 | -19.35353 | 8520 ft | 143 kts | 203° |
| 2026-04-27 10:17 | 64.42004 | -19.36236 | 8519 ft | 144 kts | 203° |
| 2026-04-27 10:17 | 64.41077 | -19.37124 | 8517 ft | 145 kts | 203° |
| 2026-04-27 10:18 | 64.40142 | -19.38021 | 8529 ft | 146 kts | 203° |
| 2026-04-27 10:18 | 64.39195 | -19.38929 | 8528 ft | 149 kts | 203° |
| 2026-04-27 10:18 | 64.38234 | -19.39849 | 8528 ft | 150 kts | 203° |
| 2026-04-27 10:18 | 64.37282 | -19.40757 | 8522 ft | 150 kts | 203° |
| 2026-04-27 10:19 | 64.36295 | -19.41566 | 8496 ft | 151 kts | 197° |
| 2026-04-27 10:19 | 64.35246 | -19.41998 | 8390 ft | 160 kts | 187° |
| 2026-04-27 10:19 | 64.34184 | -19.42092 | 8536 ft | 151 kts | 194° |
| 2026-04-27 10:19 | 64.33168 | -19.42738 | 8530 ft | 152 kts | 198° |
| 2026-04-27 10:20 | 64.32147 | -19.43445 | 8529 ft | 154 kts | 198° |
| 2026-04-27 10:20 | 64.31123 | -19.44150 | 8525 ft | 153 kts | 199° |
| 2026-04-27 10:20 | 64.30217 | -19.45329 | 8519 ft | 151 kts | 224° |
| 2026-04-27 10:20 | 64.29769 | -19.46553 | 8521 ft | 150 kts | 225° |
| 2026-04-27 10:21 | 64.29018 | -19.48212 | 8518 ft | 148 kts | 216° |
| 2026-04-27 10:21 | 64.28125 | -19.49384 | 8516 ft | 148 kts | 205° |
| 2026-04-27 10:21 | 64.27181 | -19.50356 | 8520 ft | 148 kts | 204° |
| 2026-04-27 10:21 | 64.25914 | -19.51578 | 8518 ft | 149 kts | 203° |
| 2026-04-27 10:22 | 64.25266 | -19.52194 | 8517 ft | 148 kts | 203° |
| 2026-04-27 10:22 | 64.24312 | -19.53099 | 8521 ft | 148 kts | 203° |
| 2026-04-27 10:22 | 64.23356 | -19.54003 | 8519 ft | 149 kts | 203° |
| 2026-04-27 10:22 | 64.22408 | -19.54896 | 8513 ft | 149 kts | 203° |
| 2026-04-27 10:23 | 64.21444 | -19.55808 | 8514 ft | 150 kts | 203° |
| 2026-04-27 10:23 | 64.20481 | -19.56716 | 8515 ft | 150 kts | 203° |
| 2026-04-27 10:23 | 64.19518 | -19.57625 | 8509 ft | 148 kts | 203° |
| 2026-04-27 10:23 | 64.18569 | -19.58519 | 8511 ft | 147 kts | 204° |
| 2026-04-27 10:24 | 64.17618 | -19.59415 | 8510 ft | 148 kts | 203° |
| 2026-04-27 10:24 | 64.16659 | -19.60318 | 8511 ft | 149 kts | 204° |
| 2026-04-27 10:24 | 64.15710 | -19.61211 | 8512 ft | 149 kts | 203° |
| 2026-04-27 10:24 | 64.14751 | -19.62112 | 8505 ft | 149 kts | 204° |
| 2026-04-27 10:25 | 64.13793 | -19.63011 | 8507 ft | 149 kts | 204° |
| 2026-04-27 10:25 | 64.12837 | -19.63908 | 8509 ft | 148 kts | 204° |
| 2026-04-27 10:25 | 64.11883 | -19.64803 | 8510 ft | 148 kts | 204° |
| 2026-04-27 10:25 | 64.10925 | -19.65701 | 8510 ft | 148 kts | 203° |
| 2026-04-27 10:26 | 64.09979 | -19.66586 | 8508 ft | 149 kts | 204° |
| 2026-04-27 10:26 | 64.09019 | -19.67484 | 8509 ft | 149 kts | 204° |
| 2026-04-27 10:26 | 64.08059 | -19.68382 | 8512 ft | 149 kts | 204° |
| 2026-04-27 10:26 | 64.07102 | -19.69274 | 8511 ft | 148 kts | 203° |
| 2026-04-27 10:27 | 64.06142 | -19.70172 | 8513 ft | 150 kts | 204° |
| 2026-04-27 10:27 | 64.05175 | -19.71074 | 8515 ft | 150 kts | 204° |
| 2026-04-27 10:27 | 64.04209 | -19.71974 | 8515 ft | 150 kts | 205° |
| 2026-04-27 10:27 | 64.03249 | -19.72868 | 8518 ft | 148 kts | 204° |
| 2026-04-27 10:28 | 64.02291 | -19.73759 | 8523 ft | 149 kts | 204° |
| 2026-04-27 10:28 | 64.01320 | -19.74662 | 8522 ft | 152 kts | 203° |
| 2026-04-27 10:28 | 64.00336 | -19.75578 | 8519 ft | 153 kts | 203° |
| 2026-04-27 10:28 | 63.99345 | -19.76496 | 8521 ft | 154 kts | 204° |
| 2026-04-27 10:29 | 63.98359 | -19.77412 | 8525 ft | 153 kts | 203° |
| 2026-04-27 10:29 | 63.97364 | -19.78335 | 8525 ft | 155 kts | 203° |
| 2026-04-27 10:29 | 63.96375 | -19.79252 | 8517 ft | 155 kts | 203° |
| 2026-04-27 10:29 | 63.95381 | -19.80172 | 8518 ft | 153 kts | 203° |
| 2026-04-27 10:30 | 63.94394 | -19.81084 | 8515 ft | 153 kts | 203° |
| 2026-04-27 10:30 | 63.93410 | -19.81994 | 8509 ft | 153 kts | 203° |
| 2026-04-27 10:30 | 63.92426 | -19.82903 | 8506 ft | 151 kts | 203° |
| 2026-04-27 10:30 | 63.91446 | -19.83807 | 8504 ft | 152 kts | 203° |
| 2026-04-27 10:31 | 63.90468 | -19.84710 | 8506 ft | 151 kts | 203° |
| 2026-04-27 10:31 | 63.89493 | -19.85608 | 8507 ft | 152 kts | 203° |
| 2026-04-27 10:31 | 63.88515 | -19.86507 | 8504 ft | 152 kts | 203° |
| 2026-04-27 10:31 | 63.87530 | -19.87413 | 8507 ft | 153 kts | 202° |
| 2026-04-27 10:32 | 63.86551 | -19.88313 | 8509 ft | 154 kts | 203° |
| 2026-04-27 10:32 | 63.85561 | -19.89224 | 8508 ft | 154 kts | 203° |
| 2026-04-27 10:32 | 63.84570 | -19.90134 | 8509 ft | 154 kts | 203° |
| 2026-04-27 10:32 | 63.83577 | -19.91044 | 8514 ft | 154 kts | 202° |
| 2026-04-27 10:33 | 63.82580 | -19.91957 | 8516 ft | 155 kts | 202° |
| 2026-04-27 10:33 | 63.81577 | -19.92877 | 8511 ft | 155 kts | 202° |
| 2026-04-27 10:33 | 63.80579 | -19.93790 | 8509 ft | 155 kts | 202° |
| 2026-04-27 10:33 | 63.79593 | -19.94691 | 8508 ft | 154 kts | 203° |
| 2026-04-27 10:34 | 63.78623 | -19.95578 | 8525 ft | 149 kts | 202° |
| 2026-04-27 10:34 | 63.77646 | -19.96470 | 8521 ft | 153 kts | 202° |
| 2026-04-27 10:34 | 63.76658 | -19.97372 | 8523 ft | 154 kts | 202° |
| 2026-04-27 10:34 | 63.75665 | -19.98277 | 8522 ft | 154 kts | 202° |
| 2026-04-27 10:35 | 63.74668 | -19.99185 | 8520 ft | 154 kts | 202° |
| 2026-04-27 10:35 | 63.73683 | -20.00082 | 8514 ft | 150 kts | 202° |
| 2026-04-27 10:35 | 63.72724 | -20.00955 | 8397 ft | 149 kts | 202° |
| 2026-04-27 10:35 | 63.71728 | -20.01861 | 8078 ft | 160 kts | 202° |
| 2026-04-27 10:36 | 63.70675 | -20.02818 | 7751 ft | 165 kts | 201° |
| 2026-04-27 10:36 | 63.69618 | -20.03776 | 7450 ft | 165 kts | 201° |
| 2026-04-27 10:36 | 63.68565 | -20.04731 | 7225 ft | 161 kts | 201° |
| 2026-04-27 10:36 | 63.67542 | -20.05659 | 7044 ft | 157 kts | 201° |
| 2026-04-27 10:37 | 63.66527 | -20.06577 | 6827 ft | 157 kts | 201° |
| 2026-04-27 10:37 | 63.65516 | -20.07492 | 6610 ft | 156 kts | 201° |
| 2026-04-27 10:37 | 63.64507 | -20.08404 | 6392 ft | 156 kts | 200° |
| 2026-04-27 10:37 | 63.63504 | -20.09310 | 6170 ft | 156 kts | 200° |
| 2026-04-27 10:38 | 63.62500 | -20.10217 | 5983 ft | 155 kts | 200° |
| 2026-04-27 10:38 | 63.61498 | -20.11122 | 5811 ft | 156 kts | 200° |
| 2026-04-27 10:38 | 63.60479 | -20.12034 | 5613 ft | 159 kts | 199° |
| 2026-04-27 10:38 | 63.59445 | -20.12967 | 5417 ft | 161 kts | 199° |
| 2026-04-27 10:39 | 63.58415 | -20.13896 | 5192 ft | 162 kts | 198° |